Time;durP1;ratioP1;P1;durP2;ratioP2;P2;SDS_P1;SDS_P2;PMS_P1;PMS_P2;Temp;Humidity;BMP_temperature;BMP_pressure;BME280_temperature;BME280_humidity;BME280_pressure;Samples;Min_cycle;Max_cycle;Signal;HPM_P1;HPM_P2
2023/12/06 05:01:56;;;;;;;34.95;16.98;;;1.40;99.90;;;;;;5233691;23;20243;-74
2023/12/06 05:04:23;;;;;;;25.77;13.20;;;1.40;99.90;;;;;;4970719;28;20619;-73
2023/12/06 05:06:50;;;;;;;30.27;18.52;;;1.40;99.90;;;;;;4975132;28;20212;-73
2023/12/06 05:09:16;;;;;;;33.92;16.27;;;1.40;99.90;;;;;;4970293;28;20212;-73
2023/12/06 05:11:43;;;;;;;29.95;13.68;;;1.40;99.90;;;;;;4959616;28;20233;-73
2023/12/06 05:14:10;;;;;;;29.67;17.48;;;1.40;99.90;;;;;;4956171;29;20336;-73
2023/12/06 05:16:36;;;;;;;27.27;17.73;;;1.30;99.90;;;;;;4952343;29;20312;-73
2023/12/06 05:19:06;;;;;;;30.23;15.43;;;1.40;99.90;;;;;;4956735;28;20608;-73
2023/12/06 05:21:32;;;;;;;27.75;14.32;;;1.40;99.90;;;;;;4954786;28;20267;-73
2023/12/06 05:23:59;;;;;;;29.40;17.30;;;1.40;99.90;;;;;;4955393;28;20213;-73
2023/12/06 05:26:26;;;;;;;43.97;18.83;;;1.40;99.90;;;;;;4955465;29;20213;-74
2023/12/06 05:28:54;;;;;;;39.42;15.88;;;1.40;99.90;;;;;;4952085;28;20296;-74
2023/12/06 05:31:20;;;;;;;40.47;16.60;;;1.40;99.90;;;;;;4948530;28;20229;-72
2023/12/06 05:33:48;;;;;;;32.20;18.70;;;1.40;99.90;;;;;;4960855;28;20213;-73
2023/12/06 05:36:16;;;;;;;49.25;19.88;;;1.40;99.90;;;;;;4960587;28;20664;-73
2023/12/06 05:38:43;;;;;;;31.63;22.55;;;1.40;99.90;;;;;;4954543;28;20210;-74
2023/12/06 05:41:10;;;;;;;33.05;15.13;;;1.40;99.90;;;;;;4950123;28;20616;-73
2023/12/06 05:43:37;;;;;;;33.00;17.67;;;1.40;99.90;;;;;;4951758;28;20213;-73
2023/12/06 05:46:04;;;;;;;53.50;18.90;;;1.40;99.90;;;;;;4951846;28;20770;-73
2023/12/06 05:48:31;;;;;;;38.05;20.05;;;1.40;99.90;;;;;;4954006;28;20214;-73
2023/12/06 05:50:58;;;;;;;43.80;19.13;;;1.40;99.90;;;;;;4954214;28;20233;-74
2023/12/06 05:53:26;;;;;;;41.22;19.67;;;1.40;99.90;;;;;;4953282;28;20220;-73
2023/12/06 05:55:52;;;;;;;43.88;21.10;;;1.40;99.90;;;;;;4954619;28;20205;-73
2023/12/06 05:58:19;;;;;;;38.70;19.95;;;1.40;99.90;;;;;;4955676;28;20680;-73
2023/12/06 06:00:46;;;;;;;31.83;18.20;;;1.40;99.90;;;;;;4954585;28;20236;-73
2023/12/06 06:03:12;;;;;;;40.75;16.45;;;1.40;99.90;;;;;;4953299;28;20209;-74
2023/12/06 06:05:39;;;;;;;38.28;18.45;;;1.40;99.90;;;;;;4949910;28;20214;-73
2023/12/06 06:08:06;;;;;;;37.05;18.60;;;1.40;99.90;;;;;;4956455;28;20729;-74
2023/12/06 06:10:34;;;;;;;43.33;20.20;;;1.40;99.90;;;;;;4952122;28;20312;-75
2023/12/06 06:13:01;;;;;;;31.42;19.00;;;1.40;99.90;;;;;;4953492;28;20220;-74
2023/12/06 06:15:27;;;;;;;43.05;21.85;;;1.40;99.90;;;;;;4952147;28;20220;-74
2023/12/06 06:17:54;;;;;;;40.47;19.02;;;1.40;99.90;;;;;;4952050;28;20676;-75
2023/12/06 06:20:21;;;;;;;50.13;21.17;;;1.40;99.90;;;;;;4952268;28;20225;-74
2023/12/06 06:22:47;;;;;;;41.63;19.65;;;1.40;99.90;;;;;;4952636;28;20672;-75
2023/12/06 06:25:14;;;;;;;38.78;18.27;;;1.40;99.90;;;;;;4951480;28;20206;-74
2023/12/06 06:27:42;;;;;;;47.95;21.13;;;1.30;99.90;;;;;;4948684;28;20572;-74
2023/12/06 06:30:10;;;;;;;39.60;20.75;;;1.30;99.90;;;;;;4951245;28;20205;-73
2023/12/06 06:32:37;;;;;;;43.70;21.35;;;1.30;99.90;;;;;;4953875;28;20675;-74
2023/12/06 06:35:04;;;;;;;40.25;18.65;;;1.30;99.90;;;;;;4951457;28;20202;-74
2023/12/06 06:37:31;;;;;;;40.78;18.65;;;1.30;99.90;;;;;;4953021;28;20627;-74
2023/12/06 06:39:58;;;;;;;46.20;18.38;;;1.30;99.90;;;;;;4953062;28;20201;-74
2023/12/06 06:42:24;;;;;;;46.88;20.65;;;1.30;99.90;;;;;;4952711;28;20221;-74
2023/12/06 06:44:55;;;;;;;42.63;22.20;;;1.40;99.90;;;;;;4951720;28;20213;-74
2023/12/06 06:47:22;;;;;;;43.75;22.25;;;1.30;99.90;;;;;;4951712;28;20213;-73
2023/12/06 06:49:49;;;;;;;55.63;21.15;;;1.30;99.90;;;;;;4954778;28;20205;-74
2023/12/06 06:52:15;;;;;;;39.60;18.20;;;1.30;99.90;;;;;;4952029;28;20233;-74
2023/12/06 06:54:42;;;;;;;46.50;20.75;;;1.30;99.90;;;;;;4954096;28;20209;-74
2023/12/06 06:57:09;;;;;;;52.22;21.88;;;1.30;99.90;;;;;;4953149;28;20629;-74
2023/12/06 06:59:35;;;;;;;39.47;18.42;;;1.30;99.90;;;;;;4954271;28;20222;-74
2023/12/06 07:02:04;;;;;;;49.78;21.05;;;1.30;99.90;;;;;;4950848;28;20230;-74
2023/12/06 07:04:31;;;;;;;51.28;20.30;;;1.30;99.90;;;;;;4952478;28;20213;-74
2023/12/06 07:06:58;;;;;;;37.97;19.92;;;1.30;99.90;;;;;;4949781;28;20209;-73
2023/12/06 07:09:25;;;;;;;33.50;19.02;;;1.30;99.90;;;;;;4951717;28;20408;-74
2023/12/06 07:11:52;;;;;;;40.28;19.73;;;1.30;99.90;;;;;;4950776;28;20596;-74
2023/12/06 07:14:18;;;;;;;47.42;19.33;;;1.30;99.90;;;;;;4953453;28;20209;-74
2023/12/06 07:16:46;;;;;;;41.08;19.02;;;1.30;99.90;;;;;;4952486;28;20213;-74
2023/12/06 07:19:14;;;;;;;47.22;19.55;;;1.40;99.90;;;;;;4953402;28;20208;-74
2023/12/06 07:21:40;;;;;;;44.47;21.60;;;1.40;99.90;;;;;;4952686;28;20252;-75
2023/12/06 07:24:07;;;;;;;43.33;18.63;;;1.30;99.90;;;;;;4953343;28;20209;-74
2023/12/06 07:26:34;;;;;;;50.88;21.92;;;1.40;99.90;;;;;;4950345;28;20209;-74
2023/12/06 07:29:01;;;;;;;56.42;20.63;;;1.30;99.90;;;;;;4951495;28;20248;-74
2023/12/06 07:31:27;;;;;;;42.17;20.50;;;1.30;99.90;;;;;;4952575;28;20233;-75
2023/12/06 07:33:53;;;;;;;51.97;20.67;;;1.40;99.90;;;;;;4950162;28;20691;-74
2023/12/06 07:36:22;;;;;;;57.08;22.45;;;1.40;99.90;;;;;;4951907;28;20212;-72
2023/12/06 07:38:48;;;;;;;39.30;20.30;;;1.40;99.90;;;;;;4950851;28;21173;-72
2023/12/06 07:41:15;;;;;;;48.45;20.42;;;1.40;99.90;;;;;;4951451;28;20307;-72
2023/12/06 07:43:42;;;;;;;56.28;23.50;;;1.40;99.90;;;;;;4952930;28;20228;-72
2023/12/06 07:46:09;;;;;;;37.00;19.73;;;1.40;99.90;;;;;;4952690;28;20209;-72
2023/12/06 07:48:35;;;;;;;43.75;18.75;;;1.40;99.90;;;;;;4952954;28;20220;-72
2023/12/06 07:51:02;;;;;;;43.22;19.98;;;1.40;99.90;;;;;;4948049;28;20254;-72
2023/12/06 07:53:30;;;;;;;44.30;18.20;;;1.40;99.90;;;;;;4948196;28;20209;-72
2023/12/06 07:55:58;;;;;;;36.13;20.80;;;1.40;99.90;;;;;;4947008;28;20201;-72
2023/12/06 07:58:25;;;;;;;32.45;18.25;;;1.40;99.90;;;;;;4951074;28;20570;-72
2023/12/06 08:00:51;;;;;;;51.00;25.65;;;1.40;99.90;;;;;;4952776;28;20240;-72
2023/12/06 08:03:21;;;;;;;58.33;22.20;;;1.40;99.90;;;;;;4951261;28;20209;-72
2023/12/06 08:05:48;;;;;;;47.60;22.48;;;1.40;99.90;;;;;;4952020;28;20233;-72
2023/12/06 08:08:15;;;;;;;47.95;20.73;;;1.40;99.90;;;;;;4951920;28;20201;-72
2023/12/06 08:10:43;;;;;;;39.40;20.42;;;1.40;99.90;;;;;;4950304;28;20236;-72
2023/12/06 08:13:10;;;;;;;34.47;18.45;;;1.40;99.90;;;;;;4951088;28;20212;-72
2023/12/06 08:15:37;;;;;;;44.60;19.75;;;1.40;99.90;;;;;;4952565;28;20205;-72
2023/12/06 08:18:03;;;;;;;47.03;17.10;;;1.40;99.90;;;;;;4951483;28;20202;-72
2023/12/06 08:20:30;;;;;;;46.80;22.85;;;1.40;99.90;;;;;;4946890;28;20253;-72
2023/12/06 08:22:57;;;;;;;46.30;22.15;;;1.40;99.90;;;;;;4950770;28;20201;-72
2023/12/06 08:25:24;;;;;;;42.17;17.75;;;1.40;99.90;;;;;;4947366;28;20201;-73
2023/12/06 08:27:52;;;;;;;42.92;18.02;;;1.40;99.90;;;;;;4947159;28;20209;-72
2023/12/06 08:30:19;;;;;;;45.55;18.85;;;1.40;99.90;;;;;;4952498;28;20205;-72
2023/12/06 08:32:46;;;;;;;40.47;19.98;;;1.40;99.90;;;;;;4950647;28;20237;-72
2023/12/06 08:35:13;;;;;;;44.97;20.25;;;1.50;99.90;;;;;;4951291;28;20240;-72
2023/12/06 08:37:40;;;;;;;42.28;19.73;;;1.50;99.90;;;;;;4952210;28;20576;-72
2023/12/06 08:40:10;;;;;;;49.95;20.33;;;1.40;99.90;;;;;;4947416;28;20213;-72
2023/12/06 08:42:36;;;;;;;51.45;22.40;;;1.50;99.90;;;;;;4949123;28;20197;-72
2023/12/06 08:45:05;;;;;;;49.30;19.88;;;1.40;99.90;;;;;;4950453;29;20216;-72
2023/12/06 08:47:33;;;;;;;36.20;18.92;;;1.50;99.90;;;;;;4951297;28;20240;-72
2023/12/06 08:50:00;;;;;;;50.17;22.33;;;1.50;99.90;;;;;;4950683;28;20210;-71
2023/12/06 08:52:26;;;;;;;43.45;20.30;;;1.50;99.90;;;;;;4949673;28;20235;-71
2023/12/06 08:54:53;;;;;;;40.72;22.25;;;1.50;99.90;;;;;;4950471;28;20201;-71
2023/12/06 08:57:20;;;;;;;56.03;19.85;;;1.50;99.90;;;;;;4949976;28;20296;-72
2023/12/06 08:59:46;;;;;;;49.30;20.25;;;1.60;99.90;;;;;;4949905;28;20208;-72
2023/12/06 09:02:16;;;;;;;53.92;21.75;;;1.60;99.90;;;;;;4948778;28;20228;-71
2023/12/06 09:04:42;;;;;;;40.67;19.15;;;1.60;99.90;;;;;;4950647;28;20220;-71
2023/12/06 09:07:09;;;;;;;34.00;16.65;;;1.50;99.90;;;;;;4948503;28;20213;-71
2023/12/06 09:09:36;;;;;;;34.70;17.73;;;1.60;99.90;;;;;;4949336;28;20236;-71
2023/12/06 09:12:02;;;;;;;38.75;21.08;;;1.60;99.90;;;;;;4950914;28;20224;-71
2023/12/06 09:14:29;;;;;;;45.85;20.88;;;1.60;99.90;;;;;;4949259;28;20229;-71
2023/12/06 09:16:56;;;;;;;51.10;21.40;;;1.60;99.90;;;;;;4950498;28;20205;-71
2023/12/06 09:19:24;;;;;;;39.13;19.83;;;1.60;99.90;;;;;;4951274;28;21454;-71
2023/12/06 09:21:51;;;;;;;41.72;20.10;;;1.60;99.90;;;;;;4949160;28;21211;-71
2023/12/06 09:24:18;;;;;;;54.67;20.85;;;1.60;99.90;;;;;;4953032;28;20209;-71
2023/12/06 09:26:44;;;;;;;46.00;22.00;;;1.60;99.90;;;;;;4955018;28;20205;-71
2023/12/06 09:29:12;;;;;;;37.78;19.27;;;1.60;99.90;;;;;;4953535;28;20346;-71
2023/12/06 09:31:39;;;;;;;57.08;22.00;;;1.60;99.90;;;;;;4954040;28;20235;-71
2023/12/06 09:34:06;;;;;;;52.65;22.63;;;1.60;99.90;;;;;;4954055;28;20217;-69
2023/12/06 09:36:34;;;;;;;46.25;21.83;;;1.60;99.90;;;;;;4952814;28;20216;-68
2023/12/06 09:39:04;;;;;;;48.85;23.00;;;1.60;99.90;;;;;;4949387;28;20665;-70
2023/12/06 09:41:32;;;;;;;39.75;20.52;;;1.70;99.90;;;;;;4948489;28;20411;-70
2023/12/06 09:44:00;;;;;;;48.50;21.40;;;1.70;99.90;;;;;;4952585;28;20206;-70
2023/12/06 09:46:28;;;;;;;39.20;18.50;;;1.70;99.90;;;;;;4953898;28;20636;-70
2023/12/06 09:48:55;;;;;;;49.63;19.85;;;1.70;99.90;;;;;;4952904;28;20212;-69
2023/12/06 09:51:22;;;;;;;41.47;19.63;;;1.70;99.90;;;;;;4954668;28;20236;-69
2023/12/06 09:53:50;;;;;;;42.40;17.77;;;1.70;99.90;;;;;;4951868;28;20724;-70
2023/12/06 09:56:18;;;;;;;46.75;17.63;;;1.70;99.90;;;;;;4951957;28;20212;-70
2023/12/06 09:58:45;;;;;;;45.13;18.17;;;1.70;99.90;;;;;;4954689;28;20209;-69
2023/12/06 10:01:12;;;;;;;47.92;19.67;;;1.70;99.90;;;;;;4949686;28;20374;-69
2023/12/06 10:03:39;;;;;;;33.13;16.85;;;1.70;99.90;;;;;;4951707;28;20212;-70
2023/12/06 10:06:06;;;;;;;44.92;19.15;;;1.70;99.90;;;;;;4949893;28;20201;-69
2023/12/06 10:08:33;;;;;;;36.28;20.33;;;1.70;99.90;;;;;;4953172;28;20213;-69
2023/12/06 10:11:03;;;;;;;39.33;17.35;;;1.70;99.90;;;;;;4953303;28;20316;-69
2023/12/06 10:13:35;;;;;;;33.78;18.63;;;1.70;99.90;;;;;;4954458;28;20241;-71
2023/12/06 10:16:02;;;;;;;48.70;19.67;;;1.70;99.90;;;;;;4953124;28;20205;-70
2023/12/06 10:18:29;;;;;;;58.55;20.13;;;1.70;99.90;;;;;;4953706;28;20682;-70
2023/12/06 10:20:56;;;;;;;38.92;19.00;;;1.80;99.90;;;;;;4951196;28;20233;-72
2023/12/06 10:23:23;;;;;;;43.95;20.83;;;1.80;99.90;;;;;;4952313;28;20233;-70
2023/12/06 10:25:50;;;;;;;43.88;16.60;;;1.80;99.90;;;;;;4948751;28;20233;-71
2023/12/06 10:28:19;;;;;;;46.00;18.92;;;1.80;99.90;;;;;;4953004;28;20257;-70
2023/12/06 10:30:46;;;;;;;52.60;19.00;;;1.80;99.90;;;;;;4953730;28;20229;-70
2023/12/06 10:33:17;;;;;;;39.70;18.73;;;1.80;99.90;;;;;;4953719;28;20237;-70
2023/12/06 10:35:44;;;;;;;45.85;21.58;;;1.80;99.90;;;;;;4952936;28;20220;-71
2023/12/06 10:38:13;;;;;;;34.75;19.15;;;1.80;99.90;;;;;;4953363;28;20205;-70
2023/12/06 10:40:40;;;;;;;37.35;16.63;;;1.80;99.90;;;;;;4949362;28;20229;-71
2023/12/06 10:43:09;;;;;;;43.22;17.05;;;1.80;99.90;;;;;;4950191;28;20551;-71
2023/12/06 10:45:38;;;;;;;40.78;16.92;;;1.80;99.90;;;;;;4949606;28;20210;-71
2023/12/06 10:48:07;;;;;;;43.50;18.40;;;1.80;99.90;;;;;;4950945;28;20206;-69
2023/12/06 10:50:35;;;;;;;40.85;19.33;;;1.80;99.90;;;;;;4950900;28;20221;-69
2023/12/06 10:53:03;;;;;;;29.45;16.35;;;1.90;99.90;;;;;;4955685;28;20228;-69
2023/12/06 10:55:31;;;;;;;46.28;19.98;;;1.90;99.90;;;;;;4950167;28;20214;-69
2023/12/06 10:58:00;;;;;;;35.85;18.05;;;1.90;99.90;;;;;;4945237;28;20213;-69
2023/12/06 11:00:28;;;;;;;35.45;16.67;;;1.90;99.90;;;;;;4949549;28;20213;-69
2023/12/06 11:02:56;;;;;;;37.95;17.35;;;2.00;99.90;;;;;;4953176;28;20209;-69
2023/12/06 11:05:25;;;;;;;37.38;19.55;;;1.90;99.90;;;;;;4952997;28;20212;-70
2023/12/06 11:08:39;;;;;;;33.47;17.05;;;2.00;99.90;;;;;;4950798;28;20281;-70
2023/12/06 11:11:22;;;;;;;41.38;18.10;;;1.90;99.90;;;;;;4946442;28;20229;-70
2023/12/06 11:13:59;;;;;;;33.30;16.88;;;1.90;99.90;;;;;;4951333;28;20228;-71
2023/12/06 11:16:42;;;;;;;36.00;17.20;;;2.00;99.90;;;;;;4952077;28;20212;-71
2023/12/06 11:19:12;;;;;;;35.40;15.88;;;2.10;99.90;;;;;;4949985;28;20205;-70
2023/12/06 11:21:39;;;;;;;36.25;18.55;;;2.00;99.90;;;;;;4949835;28;20260;-70
2023/12/06 11:24:08;;;;;;;43.40;18.70;;;2.00;99.90;;;;;;4950467;28;20271;-70
2023/12/06 11:26:35;;;;;;;43.40;18.65;;;2.00;99.90;;;;;;4949014;28;20209;-73
2023/12/06 11:29:04;;;;;;;40.67;18.10;;;2.00;99.90;;;;;;4948880;28;21049;-70
2023/12/06 11:31:35;;;;;;;32.58;15.38;;;1.90;99.90;;;;;;4952719;28;20229;-70
2023/12/06 11:34:05;;;;;;;36.20;14.70;;;1.90;99.90;;;;;;4948481;28;20228;-70
2023/12/06 11:36:35;;;;;;;31.73;15.68;;;2.00;99.90;;;;;;4952536;29;20304;-70
2023/12/06 11:39:13;;;;;;;33.75;17.45;;;2.00;99.90;;;;;;4948409;28;20208;-70
2023/12/06 11:41:46;;;;;;;35.22;19.73;;;2.00;99.90;;;;;;4949696;28;20323;-70
2023/12/06 11:44:17;;;;;;;33.33;17.42;;;2.00;99.90;;;;;;4952048;28;20300;-70
2023/12/06 11:46:48;;;;;;;33.08;16.95;;;2.00;99.90;;;;;;4951455;28;20229;-70
2023/12/06 11:49:15;;;;;;;44.30;15.73;;;1.90;99.90;;;;;;4952514;28;20232;-70
2023/12/06 11:51:43;;;;;;;28.88;14.80;;;2.00;99.90;;;;;;4950032;28;20240;-70
2023/12/06 11:54:12;;;;;;;36.83;17.40;;;1.90;99.90;;;;;;4952457;28;20255;-71
2023/12/06 11:56:39;;;;;;;35.53;16.55;;;1.90;99.90;;;;;;4952322;28;20232;-71
2023/12/06 11:59:07;;;;;;;32.85;16.08;;;2.00;99.90;;;;;;4952499;28;20217;-70
2023/12/06 12:01:33;;;;;;;37.42;17.40;;;2.00;99.90;;;;;;4952066;28;20251;-70
2023/12/06 12:04:01;;;;;;;41.95;17.55;;;2.00;99.90;;;;;;4952114;28;20201;-70
2023/12/06 12:06:30;;;;;;;40.92;18.90;;;2.00;99.90;;;;;;4949610;28;20556;-70
2023/12/06 12:08:59;;;;;;;40.13;19.10;;;1.90;99.90;;;;;;4951941;28;20363;-70
2023/12/06 12:11:26;;;;;;;46.20;16.05;;;2.00;99.90;;;;;;4951896;28;20236;-70
2023/12/06 12:13:53;;;;;;;32.00;16.10;;;1.90;99.90;;;;;;4951902;28;20229;-70
2023/12/06 12:16:21;;;;;;;48.15;19.58;;;1.90;99.90;;;;;;4951980;28;20216;-70
2023/12/06 12:18:47;;;;;;;30.98;13.27;;;1.90;99.90;;;;;;4952148;28;20220;-70
2023/12/06 12:21:18;;;;;;;33.38;16.75;;;1.90;99.90;;;;;;4949718;28;20723;-70
2023/12/06 12:23:46;;;;;;;32.65;13.43;;;1.90;99.90;;;;;;4951154;28;20336;-70
2023/12/06 12:26:15;;;;;;;40.83;17.88;;;1.90;99.90;;;;;;4951788;28;20828;-70
2023/12/06 12:28:42;;;;;;;30.15;14.45;;;1.90;99.90;;;;;;4951231;28;20213;-70
2023/12/06 12:31:14;;;;;;;38.13;15.93;;;1.90;99.90;;;;;;4951761;28;20255;-70
2023/12/06 12:33:41;;;;;;;36.03;16.25;;;1.90;99.90;;;;;;4949368;28;20721;-72
2023/12/06 12:36:09;;;;;;;41.83;16.20;;;2.00;99.90;;;;;;4947773;28;20233;-71
2023/12/06 12:38:38;;;;;;;31.70;15.27;;;2.00;99.90;;;;;;4946634;28;20242;-70
2023/12/06 12:41:07;;;;;;;27.77;17.50;;;2.00;99.90;;;;;;4948218;28;20566;-70
2023/12/06 12:43:36;;;;;;;36.20;17.65;;;2.00;99.90;;;;;;4950211;28;20209;-70
2023/12/06 12:46:03;;;;;;;27.83;16.45;;;2.00;99.90;;;;;;4947653;28;20205;-70
2023/12/06 12:48:30;;;;;;;32.78;15.85;;;2.00;99.90;;;;;;4949919;28;20660;-70
2023/12/06 12:51:08;;;;;;;38.55;16.23;;;2.00;99.90;;;;;;4948872;28;20240;-70
2023/12/06 12:53:36;;;;;;;36.00;16.70;;;2.00;99.90;;;;;;4945101;28;20224;-70
2023/12/06 12:56:03;;;;;;;45.50;18.05;;;2.00;99.90;;;;;;4950623;28;20212;-70
2023/12/06 12:58:32;;;;;;;38.35;17.65;;;1.90;99.90;;;;;;4948616;28;20300;-70
2023/12/06 13:01:03;;;;;;;37.50;15.63;;;1.90;99.90;;;;;;4952860;28;20285;-71
2023/12/06 13:03:31;;;;;;;31.17;16.48;;;2.00;99.90;;;;;;4953748;28;20206;-71
2023/12/06 13:05:58;;;;;;;40.90;19.17;;;2.00;99.90;;;;;;4951791;28;20276;-71
2023/12/06 13:08:30;;;;;;;49.88;21.23;;;2.00;99.90;;;;;;4952674;28;20208;-71
2023/12/06 13:10:56;;;;;;;48.17;21.92;;;1.90;99.90;;;;;;4953820;28;20785;-71
2023/12/06 13:13:23;;;;;;;46.40;19.98;;;1.90;99.90;;;;;;4955199;28;20220;-70
2023/12/06 13:15:50;;;;;;;53.35;24.77;;;1.90;99.90;;;;;;4955008;28;20212;-71
2023/12/06 13:18:18;;;;;;;36.70;17.58;;;1.90;99.90;;;;;;4951889;28;20565;-71
2023/12/06 13:20:45;;;;;;;45.70;16.33;;;1.90;99.90;;;;;;4953727;28;20692;-70
2023/12/06 13:23:11;;;;;;;45.53;22.27;;;1.90;99.90;;;;;;4959164;28;20654;-69
2023/12/06 13:25:38;;;;;;;50.28;22.63;;;2.00;99.90;;;;;;4960294;28;20208;-70
2023/12/06 13:28:05;;;;;;;39.10;15.95;;;2.00;99.90;;;;;;4958609;28;20212;-70
2023/12/06 13:30:32;;;;;;;39.40;18.15;;;2.00;99.90;;;;;;4956760;28;20241;-71
2023/12/06 13:32:59;;;;;;;34.60;14.70;;;2.00;99.90;;;;;;4953530;28;20224;-71
2023/12/06 13:35:27;;;;;;;33.92;18.05;;;2.00;99.90;;;;;;4955363;28;20205;-71
2023/12/06 13:37:57;;;;;;;46.13;15.38;;;2.00;99.90;;;;;;4951063;28;20217;-72
2023/12/06 13:40:24;;;;;;;32.60;14.98;;;2.00;99.90;;;;;;4953283;28;20289;-72
2023/12/06 13:42:51;;;;;;;37.22;16.75;;;2.00;99.90;;;;;;4959172;28;20205;-72
2023/12/06 13:45:17;;;;;;;36.22;15.00;;;2.00;99.90;;;;;;4954867;28;20221;-72
2023/12/06 13:47:45;;;;;;;38.47;19.50;;;2.00;99.90;;;;;;4955131;28;20219;-71
2023/12/06 13:50:12;;;;;;;39.97;19.10;;;2.00;99.90;;;;;;4953092;28;20205;-71
2023/12/06 13:52:40;;;;;;;33.08;13.60;;;2.00;99.90;;;;;;4951262;28;20220;-70
2023/12/06 13:55:08;;;;;;;31.60;16.23;;;2.00;99.90;;;;;;4954024;28;20209;-72
2023/12/06 13:57:35;;;;;;;42.75;19.75;;;2.00;99.90;;;;;;4952536;28;20243;-71
2023/12/06 14:00:05;;;;;;;30.80;15.23;;;2.00;99.90;;;;;;4951920;28;20293;-72
2023/12/06 14:02:31;;;;;;;22.00;13.43;;;2.00;99.90;;;;;;4954369;28;20233;-71
2023/12/06 14:04:59;;;;;;;34.40;15.70;;;2.00;99.90;;;;;;4950067;28;20225;-70
2023/12/06 14:07:26;;;;;;;30.80;15.93;;;2.00;99.90;;;;;;4951549;28;20206;-71
2023/12/06 14:09:54;;;;;;;28.70;13.68;;;2.00;99.90;;;;;;4949572;28;20218;-71
2023/12/06 14:12:20;;;;;;;36.40;16.70;;;2.00;99.90;;;;;;4951430;28;20235;-71
2023/12/06 14:14:47;;;;;;;32.97;12.63;;;2.00;99.90;;;;;;4950049;28;20237;-72
2023/12/06 14:17:14;;;;;;;27.10;12.45;;;2.00;99.90;;;;;;4949139;28;20226;-70
2023/12/06 14:19:40;;;;;;;37.33;15.88;;;2.00;99.90;;;;;;4953976;28;20406;-71
2023/12/06 14:22:07;;;;;;;35.85;17.33;;;2.00;99.90;;;;;;4950776;28;20237;-72
2023/12/06 14:24:34;;;;;;;35.22;16.27;;;2.00;99.90;;;;;;4953985;28;20220;-72
2023/12/06 14:27:02;;;;;;;38.97;17.15;;;2.00;99.90;;;;;;4952778;28;20216;-72
2023/12/06 14:29:28;;;;;;;32.67;15.90;;;2.00;99.90;;;;;;4952326;28;20672;-71
2023/12/06 14:31:55;;;;;;;32.83;13.10;;;2.00;99.90;;;;;;4952338;28;20257;-72
2023/12/06 14:34:22;;;;;;;29.35;16.20;;;2.00;99.90;;;;;;4952980;28;20225;-72
2023/12/06 14:36:48;;;;;;;38.15;14.85;;;2.00;99.90;;;;;;4953624;28;20287;-72
2023/12/06 14:39:15;;;;;;;36.63;15.55;;;2.00;99.90;;;;;;4952604;28;20683;-72
2023/12/06 14:41:42;;;;;;;38.42;15.57;;;2.00;99.90;;;;;;4952748;28;20259;-71
2023/12/06 14:44:10;;;;;;;48.05;19.83;;;2.00;99.90;;;;;;4953498;28;20216;-71
2023/12/06 14:46:37;;;;;;;25.67;13.85;;;2.00;99.90;;;;;;4950404;28;20214;-71
2023/12/06 14:49:03;;;;;;;39.97;14.35;;;2.00;99.90;;;;;;4950571;28;20213;-72
2023/12/06 14:51:30;;;;;;;29.83;14.60;;;2.00;99.90;;;;;;4952809;28;20244;-70
2023/12/06 14:53:59;;;;;;;38.60;18.13;;;2.00;99.90;;;;;;4951062;28;20228;-71
2023/12/06 14:56:25;;;;;;;29.27;15.35;;;2.00;99.90;;;;;;4951120;28;20216;-71
2023/12/06 14:58:52;;;;;;;29.05;16.75;;;2.00;99.90;;;;;;4953371;28;20209;-71
2023/12/06 15:01:20;;;;;;;34.35;16.80;;;2.00;99.90;;;;;;4950780;28;20242;-71
2023/12/06 15:03:47;;;;;;;29.77;13.73;;;2.00;99.90;;;;;;4945923;28;20208;-71
2023/12/06 15:06:13;;;;;;;33.30;17.48;;;2.00;99.90;;;;;;4952127;28;20240;-73
2023/12/06 15:08:41;;;;;;;31.52;17.63;;;2.00;99.90;;;;;;4953038;28;20210;-71
2023/12/06 15:11:08;;;;;;;28.00;12.68;;;2.00;99.90;;;;;;4951015;28;20225;-72
2023/12/06 15:13:35;;;;;;;25.88;13.13;;;2.00;99.90;;;;;;4952082;28;20719;-72
2023/12/06 15:16:01;;;;;;;34.53;14.75;;;2.00;99.90;;;;;;4950554;28;20832;-73
2023/12/06 15:18:29;;;;;;;24.98;12.85;;;1.90;99.90;;;;;;4948850;28;20216;-71
2023/12/06 15:20:56;;;;;;;22.80;12.55;;;2.00;99.90;;;;;;4950850;28;20225;-72
2023/12/06 15:23:23;;;;;;;26.98;12.32;;;1.90;99.90;;;;;;4952786;28;20209;-71
2023/12/06 15:25:50;;;;;;;24.45;11.43;;;1.90;99.90;;;;;;4950890;29;20708;-72
2023/12/06 15:28:17;;;;;;;17.52;9.98;;;2.00;99.90;;;;;;4952161;28;20206;-72
2023/12/06 15:30:44;;;;;;;17.67;10.07;;;1.90;99.90;;;;;;4950802;28;20245;-72
2023/12/06 15:33:10;;;;;;;26.02;11.70;;;2.00;99.90;;;;;;4949599;28;20205;-73
2023/12/06 15:35:38;;;;;;;23.98;10.05;;;1.90;99.90;;;;;;4951832;28;20223;-71
2023/12/06 15:38:06;;;;;;;25.90;11.57;;;1.90;99.90;;;;;;4946894;28;20212;-71
2023/12/06 15:40:34;;;;;;;22.20;11.30;;;1.90;99.90;;;;;;4951290;28;20641;-71
2023/12/06 15:43:00;;;;;;;26.42;11.85;;;1.90;99.90;;;;;;4952695;28;20232;-71
2023/12/06 15:45:29;;;;;;;21.50;9.90;;;1.90;99.90;;;;;;4950520;28;20205;-71
2023/12/06 15:47:57;;;;;;;18.67;8.07;;;1.90;99.90;;;;;;4950662;28;20205;-70
2023/12/06 15:50:23;;;;;;;20.52;11.48;;;1.90;99.90;;;;;;4950537;28;20250;-71
2023/12/06 15:52:51;;;;;;;18.20;11.30;;;1.90;99.90;;;;;;4950393;28;20201;-71
2023/12/06 15:55:18;;;;;;;19.35;9.38;;;1.90;99.90;;;;;;4951506;28;20226;-72
2023/12/06 15:57:45;;;;;;;15.35;11.32;;;1.90;99.90;;;;;;4951880;28;20224;-71
2023/12/06 16:00:13;;;;;;;13.75;9.02;;;1.90;99.90;;;;;;4950809;28;20213;-71
2023/12/06 16:02:40;;;;;;;20.35;10.80;;;2.00;99.90;;;;;;4946037;28;20204;-74
2023/12/06 16:05:09;;;;;;;12.95;9.68;;;1.90;99.90;;;;;;4952104;28;20205;-74
2023/12/06 16:07:35;;;;;;;13.40;8.77;;;1.90;99.90;;;;;;4952124;28;20214;-73
2023/12/06 16:10:04;;;;;;;15.00;9.02;;;1.90;99.90;;;;;;4957771;28;20204;-73
2023/12/06 16:12:31;;;;;;;15.20;8.15;;;1.90;99.90;;;;;;4952417;28;20228;-74
2023/12/06 16:14:57;;;;;;;12.65;8.45;;;1.90;99.90;;;;;;4956608;28;20239;-74
2023/12/06 16:17:24;;;;;;;15.23;7.10;;;1.90;99.90;;;;;;4953761;28;20205;-72
2023/12/06 16:19:51;;;;;;;13.15;8.30;;;1.90;99.90;;;;;;4951690;28;20221;-74
2023/12/06 16:22:18;;;;;;;10.63;8.00;;;1.90;99.90;;;;;;4948855;28;20232;-73
2023/12/06 16:24:44;;;;;;;40.53;23.95;;;1.90;99.90;;;;;;4951210;28;20613;-72
2023/12/06 16:27:12;;;;;;;10.48;8.57;;;1.90;99.90;;;;;;4951364;28;20241;-73
2023/12/06 16:29:39;;;;;;;15.50;9.18;;;1.90;99.90;;;;;;4950042;28;20223;-73
2023/12/06 16:32:07;;;;;;;18.02;10.20;;;1.90;99.90;;;;;;4951333;28;20244;-72
2023/12/06 16:34:33;;;;;;;12.77;8.35;;;1.90;99.90;;;;;;4958044;28;20359;-73
2023/12/06 16:37:00;;;;;;;9.95;8.88;;;1.90;99.90;;;;;;4946663;28;20641;-73
2023/12/06 16:39:27;;;;;;;22.30;11.85;;;1.90;99.90;;;;;;4950399;28;20579;-73
2023/12/06 16:41:54;;;;;;;14.38;9.35;;;1.90;99.90;;;;;;4949130;28;20336;-74
2023/12/06 16:44:22;;;;;;;17.80;12.63;;;1.90;99.90;;;;;;4947154;28;20688;-72
2023/12/06 16:46:49;;;;;;;20.55;11.77;;;1.90;99.90;;;;;;4949355;28;20209;-73
2023/12/06 16:49:16;;;;;;;18.30;10.27;;;1.90;99.90;;;;;;4951758;28;20629;-73
2023/12/06 16:51:43;;;;;;;23.13;11.35;;;1.90;99.90;;;;;;4949331;28;20716;-73
2023/12/06 16:54:09;;;;;;;27.63;13.90;;;1.90;99.90;;;;;;4948543;28;20252;-74
2023/12/06 16:56:37;;;;;;;17.98;11.45;;;1.90;99.90;;;;;;4951467;28;20208;-74
2023/12/06 16:59:04;;;;;;;22.70;13.60;;;1.90;99.90;;;;;;4950264;28;20561;-73
2023/12/06 17:01:33;;;;;;;22.10;10.43;;;1.90;99.90;;;;;;4949237;28;20253;-74
2023/12/06 17:04:00;;;;;;;16.77;10.55;;;1.90;99.90;;;;;;4952099;28;20554;-74
2023/12/06 17:06:27;;;;;;;18.20;9.10;;;1.90;99.90;;;;;;4951362;28;20212;-73
2023/12/06 17:08:54;;;;;;;41.90;22.05;;;1.90;99.90;;;;;;4951898;28;20311;-75
2023/12/06 17:11:22;;;;;;;19.80;11.88;;;1.90;99.90;;;;;;4950264;28;20225;-73
2023/12/06 17:13:49;;;;;;;32.33;17.23;;;1.90;99.90;;;;;;4947741;28;20668;-73
2023/12/06 17:16:15;;;;;;;20.30;12.73;;;1.90;99.90;;;;;;4950918;28;20209;-74
2023/12/06 17:18:44;;;;;;;37.60;16.88;;;1.90;99.90;;;;;;4947576;28;20785;-75
2023/12/06 17:21:11;;;;;;;24.45;13.90;;;1.90;99.90;;;;;;4949968;28;20225;-74
2023/12/06 17:23:38;;;;;;;21.42;12.00;;;1.90;99.90;;;;;;4942280;28;20209;-74
2023/12/06 17:26:04;;;;;;;19.98;12.55;;;1.90;99.90;;;;;;4956144;28;20640;-74
2023/12/06 17:28:31;;;;;;;22.85;13.20;;;1.90;99.90;;;;;;4952921;28;20217;-74
2023/12/06 17:30:58;;;;;;;23.52;12.30;;;1.90;99.90;;;;;;4957985;28;20263;-73
2023/12/06 17:33:25;;;;;;;26.88;16.25;;;1.90;99.90;;;;;;4964683;28;20216;-75
2023/12/06 17:35:53;;;;;;;23.20;13.23;;;1.90;99.90;;;;;;4951313;28;20259;-74
2023/12/06 17:38:20;;;;;;;23.63;14.00;;;1.90;99.90;;;;;;4957568;28;20217;-75
2023/12/06 17:40:47;;;;;;;24.60;12.25;;;1.90;99.90;;;;;;4957282;28;20236;-75